Home   Weather   Switzerland   Thun   Past weeks
Flag for Switzerland

Past Weather in Thun, Bern, Switzerland — Yesterday and Last 2 Weeks

Currently: 73 °F. Mild. (Weather station: Bern / Belp, Switzerland). See more current weather

Past Weather in Thun — Graph

°F

Thun Temperature Yesterday

Maximum temperature yesterday: 70 °F (at 5:20 pm)
Minimum temperature yesterday: 50 °F (at 10:50 pm)
Average temperature yesterday: 57 °F

High & Low Weather Summary for the Past Weeks

 TemperatureHumidityPressure
High73 °F (Oct 5, 3:50 pm)100% (Sep 21, 6:50 am)30.30 "Hg (Sep 21, 6:50 am)
Low36 °F (Sep 22, 7:50 am)44% (Oct 5, 4:20 pm)29.50 "Hg (Sep 28, 8:20 am)
Average53 °F84%29.99 "Hg
* Reported Sep 20 4:20 pm — Oct 5 4:20 pm, Thun. Weather by CustomWeather, © 2022

Note: Actual official high and low records may vary slightly from our data, if they occured in-between our weather recording intervals... More about our weather records

Thun Weather History for the Previous 24 Hours

Scroll right to see more
 ConditionsComfort  
Time TempWeatherWind HumidityBarometerVisibility
4:20 pm
Wed, Oct 5
73 °FPassing clouds.6 mph44%30.21 "HgN/A
3:50 pm73 °FPassing clouds.6 mph50%30.21 "HgN/A
3:20 pm72 °FSunny.No wind53%30.21 "Hg10 mi
2:50 pm70 °FSunny.No wind53%30.21 "Hg10 mi
2:20 pm70 °FSunny.2 mph57%30.21 "Hg10 mi
1:20 pm68 °FSunny.1 mph56%30.24 "Hg10 mi
12:50 pm64 °FSunny.1 mph64%30.24 "Hg10 mi
12:20 pm63 °FSunny.2 mph64%30.24 "Hg10 mi
11:50 am63 °FSunny.2 mph64%30.27 "Hg10 mi
11:20 am59 °FSunny.No wind68%30.27 "Hg10 mi
10:50 am57 °FSunny.No wind72%30.27 "Hg10 mi
10:20 am55 °FSunny.No wind72%30.27 "Hg10 mi
9:20 am48 °FSunny.2 mph94%30.27 "Hg10 mi
8:20 am45 °FSunny.2 mph93%30.27 "Hg10 mi
7:50 am43 °FSunny.1 mph100%30.24 "Hg10 mi
7:20 am43 °FLight fog.1 mph100%30.24 "HgN/A
6:50 am45 °FClear.2 mph100%30.24 "Hg10 mi
6:20 am45 °FQuite cool.1 mph100%30.24 "HgN/A
5:50 am45 °FQuite cool.3 mph93%30.24 "HgN/A
5:20 am45 °FQuite cool.1 mph100%30.24 "HgN/A
4:20 am46 °FCool.1 mph93%30.24 "HgN/A
3:50 am46 °FCool.1 mph100%30.24 "HgN/A
3:20 am46 °FCool.1 mph100%30.24 "HgN/A
2:50 am48 °FCool.2 mph94%30.24 "HgN/A
1:20 am50 °FCool.2 mph94%30.27 "HgN/A
12:50 am48 °FCool.3 mph100%30.27 "HgN/A
12:20 am50 °FCool.1 mph94%30.27 "HgN/A
11:50 pm
Tue, Oct 4
50 °FCool.2 mph94%30.24 "HgN/A
11:20 pm52 °FCool.6 mph94%30.24 "HgN/A
10:50 pm50 °FCool.7 mph100%30.24 "HgN/A
10:20 pm52 °FCool.6 mph94%30.24 "HgN/A
9:50 pm52 °FCool.6 mph94%30.24 "HgN/A
9:20 pm52 °FCool.5 mph94%30.21 "HgN/A
8:20 pm55 °FClear.3 mph88%30.21 "Hg10 mi
7:50 pm55 °FClear.3 mph94%30.21 "Hg10 mi
7:20 pm59 °FClear.1 mph82%30.18 "Hg10 mi
6:50 pm61 °FSunny.No wind83%30.18 "Hg10 mi
6:20 pm64 °FSunny.3 mph73%30.18 "Hg10 mi
5:20 pm70 °FSunny.2 mph60%30.18 "Hg10 mi
Weather by CustomWeather, © 2022

See weather overview